sensor_id;sensor_type;location;lat;lon;timestamp;temperature;humidity
22416;DHT22;12204;50.600;4.608;2023-04-03T00:02:24;17.90;70.80
22416;DHT22;12204;50.600;4.608;2023-04-03T00:07:28;17.90;70.80
22416;DHT22;12204;50.600;4.608;2023-04-03T00:12:33;17.90;70.80
22416;DHT22;12204;50.600;4.608;2023-04-03T00:17:36;17.90;70.60
22416;DHT22;12204;50.600;4.608;2023-04-03T00:22:40;17.90;70.70
22416;DHT22;12204;50.600;4.608;2023-04-03T00:27:45;17.90;70.80
22416;DHT22;12204;50.600;4.608;2023-04-03T00:32:49;17.90;70.90
22416;DHT22;12204;50.600;4.608;2023-04-03T00:37:54;17.90;70.90
22416;DHT22;12204;50.600;4.608;2023-04-03T00:43:00;17.90;70.70
22416;DHT22;12204;50.600;4.608;2023-04-03T00:48:05;17.90;70.80
22416;DHT22;12204;50.600;4.608;2023-04-03T00:53:17;17.90;70.80
22416;DHT22;12204;50.600;4.608;2023-04-03T00:58:27;17.90;70.90
22416;DHT22;12204;50.600;4.608;2023-04-03T01:03:35;17.90;70.70
22416;DHT22;12204;50.600;4.608;2023-04-03T01:08:40;17.90;70.80
22416;DHT22;12204;50.600;4.608;2023-04-03T01:13:44;17.90;70.90
22416;DHT22;12204;50.600;4.608;2023-04-03T01:18:48;17.90;70.90
22416;DHT22;12204;50.600;4.608;2023-04-03T01:24:00;17.90;70.90
22416;DHT22;12204;50.600;4.608;2023-04-03T01:29:16;17.90;70.60
22416;DHT22;12204;50.600;4.608;2023-04-03T01:34:21;17.90;70.80
22416;DHT22;12204;50.600;4.608;2023-04-03T01:39:26;17.90;70.90
22416;DHT22;12204;50.600;4.608;2023-04-03T01:44:30;17.90;70.80
22416;DHT22;12204;50.600;4.608;2023-04-03T01:49:36;17.90;70.60
22416;DHT22;12204;50.600;4.608;2023-04-03T01:54:39;17.90;70.70
22416;DHT22;12204;50.600;4.608;2023-04-03T01:59:43;17.90;70.80
22416;DHT22;12204;50.600;4.608;2023-04-03T02:04:48;17.90;70.90
22416;DHT22;12204;50.600;4.608;2023-04-03T02:09:52;17.90;70.90
22416;DHT22;12204;50.600;4.608;2023-04-03T02:14:56;17.90;70.90
22416;DHT22;12204;50.600;4.608;2023-04-03T02:20:03;17.90;70.70
22416;DHT22;12204;50.600;4.608;2023-04-03T02:25:08;17.90;70.80
22416;DHT22;12204;50.600;4.608;2023-04-03T02:30:12;17.80;70.90
22416;DHT22;12204;50.600;4.608;2023-04-03T02:35:19;17.80;70.90
22416;DHT22;12204;50.600;4.608;2023-04-03T02:40:23;17.90;70.80
22416;DHT22;12204;50.600;4.608;2023-04-03T02:45:27;17.80;71.30
22416;DHT22;12204;50.600;4.608;2023-04-03T02:50:32;17.90;70.80
22416;DHT22;12204;50.600;4.608;2023-04-03T02:55:36;17.90;70.80
22416;DHT22;12204;50.600;4.608;2023-04-03T03:00:40;17.80;70.80
22416;DHT22;12204;50.600;4.608;2023-04-03T03:05:45;17.80;70.70
22416;DHT22;12204;50.600;4.608;2023-04-03T03:10:49;17.80;70.50
22416;DHT22;12204;50.600;4.608;2023-04-03T03:15:53;17.80;70.60
22416;DHT22;12204;50.600;4.608;2023-04-03T03:21:00;17.80;70.60
22416;DHT22;12204;50.600;4.608;2023-04-03T03:26:06;17.80;70.70
22416;DHT22;12204;50.600;4.608;2023-04-03T03:31:12;17.80;70.70
22416;DHT22;12204;50.600;4.608;2023-04-03T03:36:18;17.80;70.40
22416;DHT22;12204;50.600;4.608;2023-04-03T03:41:22;17.80;70.40
22416;DHT22;12204;50.600;4.608;2023-04-03T03:46:26;17.80;70.60
22416;DHT22;12204;50.600;4.608;2023-04-03T03:51:31;17.80;70.70
22416;DHT22;12204;50.600;4.608;2023-04-03T03:56:34;17.80;70.70
22416;DHT22;12204;50.600;4.608;2023-04-03T04:01:39;17.80;70.40
22416;DHT22;12204;50.600;4.608;2023-04-03T04:06:44;17.80;70.50
22416;DHT22;12204;50.600;4.608;2023-04-03T04:11:48;17.80;70.70
22416;DHT22;12204;50.600;4.608;2023-04-03T04:16:52;17.80;70.70
22416;DHT22;12204;50.600;4.608;2023-04-03T04:22:01;17.80;70.70
22416;DHT22;12204;50.600;4.608;2023-04-03T04:27:06;17.80;70.50
22416;DHT22;12204;50.600;4.608;2023-04-03T04:32:10;17.80;70.50
22416;DHT22;12204;50.600;4.608;2023-04-03T04:37:16;17.80;70.60
22416;DHT22;12204;50.600;4.608;2023-04-03T04:42:21;17.80;70.70
22416;DHT22;12204;50.600;4.608;2023-04-03T04:47:25;17.80;70.70
22416;DHT22;12204;50.600;4.608;2023-04-03T04:52:30;17.80;70.50
22416;DHT22;12204;50.600;4.608;2023-04-03T04:57:34;17.80;70.50
22416;DHT22;12204;50.600;4.608;2023-04-03T05:02:39;17.80;70.60
22416;DHT22;12204;50.600;4.608;2023-04-03T05:07:44;17.70;70.70
22416;DHT22;12204;50.600;4.608;2023-04-03T05:12:49;17.80;70.70
22416;DHT22;12204;50.600;4.608;2023-04-03T05:17:53;17.80;70.70
22416;DHT22;12204;50.600;4.608;2023-04-03T05:22:58;17.70;70.50
22416;DHT22;12204;50.600;4.608;2023-04-03T05:28:02;17.80;70.50
22416;DHT22;12204;50.600;4.608;2023-04-03T05:33:07;17.70;70.50
22416;DHT22;12204;50.600;4.608;2023-04-03T05:38:19;17.70;70.70
22416;DHT22;12204;50.600;4.608;2023-04-03T05:43:23;17.70;70.70
22416;DHT22;12204;50.600;4.608;2023-04-03T05:48:27;17.70;70.50
22416;DHT22;12204;50.600;4.608;2023-04-03T05:53:35;17.70;70.50
22416;DHT22;12204;50.600;4.608;2023-04-03T05:58:40;17.70;70.60
22416;DHT22;12204;50.600;4.608;2023-04-03T06:03:44;17.70;70.70
22416;DHT22;12204;50.600;4.608;2023-04-03T06:08:49;17.70;70.60
22416;DHT22;12204;50.600;4.608;2023-04-03T06:13:53;17.70;70.70
22416;DHT22;12204;50.600;4.608;2023-04-03T06:18:57;17.70;70.50
22416;DHT22;12204;50.600;4.608;2023-04-03T06:24:02;17.70;70.40
22416;DHT22;12204;50.600;4.608;2023-04-03T06:29:07;17.70;70.50
22416;DHT22;12204;50.600;4.608;2023-04-03T06:34:10;17.70;70.60
22416;DHT22;12204;50.600;4.608;2023-04-03T06:39:18;17.70;70.60
22416;DHT22;12204;50.600;4.608;2023-04-03T06:44:23;17.70;70.50
22416;DHT22;12204;50.600;4.608;2023-04-03T06:49:27;17.70;70.30
22416;DHT22;12204;50.600;4.608;2023-04-03T06:54:32;17.70;70.50
22416;DHT22;12204;50.600;4.608;2023-04-03T06:59:36;17.70;70.50
22416;DHT22;12204;50.600;4.608;2023-04-03T07:04:39;17.70;70.60
22416;DHT22;12204;50.600;4.608;2023-04-03T07:09:45;17.70;71.40
22416;DHT22;12204;50.600;4.608;2023-04-03T07:14:49;17.70;70.50
22416;DHT22;12204;50.600;4.608;2023-04-03T07:19:53;17.70;70.30
22416;DHT22;12204;50.600;4.608;2023-04-03T07:24:58;17.70;70.40
22416;DHT22;12204;50.600;4.608;2023-04-03T07:30:02;17.70;70.50
22416;DHT22;12204;50.600;4.608;2023-04-03T07:35:07;17.70;70.50
22416;DHT22;12204;50.600;4.608;2023-04-03T07:40:12;17.70;70.50
22416;DHT22;12204;50.600;4.608;2023-04-03T07:45:16;17.70;70.20
22416;DHT22;12204;50.600;4.608;2023-04-03T07:50:21;17.70;70.30
22416;DHT22;12204;50.600;4.608;2023-04-03T07:55:26;17.70;70.40
22416;DHT22;12204;50.600;4.608;2023-04-03T08:00:29;17.70;70.40
22416;DHT22;12204;50.600;4.608;2023-04-03T08:05:36;17.70;70.40
22416;DHT22;12204;50.600;4.608;2023-04-03T08:10:42;17.70;70.20
22416;DHT22;12204;50.600;4.608;2023-04-03T08:15:46;17.70;70.20
22416;DHT22;12204;50.600;4.608;2023-04-03T08:20:50;17.70;70.30
22416;DHT22;12204;50.600;4.608;2023-04-03T08:25:55;17.70;70.40
22416;DHT22;12204;50.600;4.608;2023-04-03T08:31:02;17.70;70.30
22416;DHT22;12204;50.600;4.608;2023-04-03T08:36:17;17.70;70.20
22416;DHT22;12204;50.600;4.608;2023-04-03T08:41:30;17.70;70.10
22416;DHT22;12204;50.600;4.608;2023-04-03T08:46:47;17.70;70.20
22416;DHT22;12204;50.600;4.608;2023-04-03T08:52:11;17.70;70.30
22416;DHT22;12204;50.600;4.608;2023-04-03T08:57:23;17.70;70.30
22416;DHT22;12204;50.600;4.608;2023-04-03T09:02:37;17.70;70.00
22416;DHT22;12204;50.600;4.608;2023-04-03T09:07:47;17.70;70.10
22416;DHT22;12204;50.600;4.608;2023-04-03T09:13:04;17.70;70.30
22416;DHT22;12204;50.600;4.608;2023-04-03T09:18:15;17.70;70.30
22416;DHT22;12204;50.600;4.608;2023-04-03T09:23:26;17.70;70.20
22416;DHT22;12204;50.600;4.608;2023-04-03T09:28:38;17.70;70.00
22416;DHT22;12204;50.600;4.608;2023-04-03T09:33:54;17.70;70.00
22416;DHT22;12204;50.600;4.608;2023-04-03T09:39:05;17.70;70.10
22416;DHT22;12204;50.600;4.608;2023-04-03T09:44:23;17.70;70.20
22416;DHT22;12204;50.600;4.608;2023-04-03T09:49:28;17.70;70.10
22416;DHT22;12204;50.600;4.608;2023-04-03T09:54:34;17.70;69.80
22416;DHT22;12204;50.600;4.608;2023-04-03T09:59:47;17.80;70.70
22416;DHT22;12204;50.600;4.608;2023-04-03T10:05:02;17.70;70.00
22416;DHT22;12204;50.600;4.608;2023-04-03T10:10:18;17.70;70.10
22416;DHT22;12204;50.600;4.608;2023-04-03T10:15:29;17.70;70.10
22416;DHT22;12204;50.600;4.608;2023-04-03T10:20:42;17.70;69.80
22416;DHT22;12204;50.600;4.608;2023-04-03T10:25:56;17.80;69.90
22416;DHT22;12204;50.600;4.608;2023-04-03T10:31:15;17.70;70.00
22416;DHT22;12204;50.600;4.608;2023-04-03T10:36:31;17.70;70.00
22416;DHT22;12204;50.600;4.608;2023-04-03T10:41:50;17.70;70.10
22416;DHT22;12204;50.600;4.608;2023-04-03T10:47:21;17.80;69.90
22416;DHT22;12204;50.600;4.608;2023-04-03T10:52:39;17.70;69.80
22416;DHT22;12204;50.600;4.608;2023-04-03T10:57:49;17.80;70.00
22416;DHT22;12204;50.600;4.608;2023-04-03T11:02:57;17.70;70.00
22416;DHT22;12204;50.600;4.608;2023-04-03T11:08:07;17.80;70.00
22416;DHT22;12204;50.600;4.608;2023-04-03T11:13:21;17.80;69.90
22416;DHT22;12204;50.600;4.608;2023-04-03T11:18:35;17.80;69.80
22416;DHT22;12204;50.600;4.608;2023-04-03T11:23:44;17.80;69.90
22416;DHT22;12204;50.600;4.608;2023-04-03T11:28:55;17.80;70.00
22416;DHT22;12204;50.600;4.608;2023-04-03T11:34:14;17.80;70.00
22416;DHT22;12204;50.600;4.608;2023-04-03T11:39:32;17.80;69.90
22416;DHT22;12204;50.600;4.608;2023-04-03T11:44:38;17.70;69.70
22416;DHT22;12204;50.600;4.608;2023-04-03T11:49:59;17.80;69.90
22416;DHT22;12204;50.600;4.608;2023-04-03T11:55:43;17.80;69.90
22416;DHT22;12204;50.600;4.608;2023-04-03T12:01:01;17.70;69.90
22416;DHT22;12204;50.600;4.608;2023-04-03T12:06:50;17.80;69.70
22416;DHT22;12204;50.600;4.608;2023-04-03T12:12:24;17.80;69.70
22416;DHT22;12204;50.600;4.608;2023-04-03T12:17:35;17.80;69.90
22416;DHT22;12204;50.600;4.608;2023-04-03T12:23:07;17.80;70.00
22416;DHT22;12204;50.600;4.608;2023-04-03T12:28:11;17.80;70.00
22416;DHT22;12204;50.600;4.608;2023-04-03T12:33:24;17.80;69.70
22416;DHT22;12204;50.600;4.608;2023-04-03T12:39:02;17.80;69.70
22416;DHT22;12204;50.600;4.608;2023-04-03T12:44:31;17.70;69.80
22416;DHT22;12204;50.600;4.608;2023-04-03T12:49:43;17.80;70.00
22416;DHT22;12204;50.600;4.608;2023-04-03T12:54:48;17.80;70.00
22416;DHT22;12204;50.600;4.608;2023-04-03T12:59:53;17.70;69.60
22416;DHT22;12204;50.600;4.608;2023-04-03T13:04:58;17.80;69.70
22416;DHT22;12204;50.600;4.608;2023-04-03T13:10:16;17.80;69.90
22416;DHT22;12204;50.600;4.608;2023-04-03T13:15:22;17.80;69.90
22416;DHT22;12204;50.600;4.608;2023-04-03T13:20:30;17.80;70.00
22416;DHT22;12204;50.600;4.608;2023-04-03T13:25:41;17.80;70.00
22416;DHT22;12204;50.600;4.608;2023-04-03T13:31:00;17.80;69.60
22416;DHT22;12204;50.600;4.608;2023-04-03T13:36:10;17.80;69.50
22416;DHT22;12204;50.600;4.608;2023-04-03T13:41:29;17.80;69.50
22416;DHT22;12204;50.600;4.608;2023-04-03T13:46:34;17.90;69.60
22416;DHT22;12204;50.600;4.608;2023-04-03T13:51:38;17.90;69.50
22416;DHT22;12204;50.600;4.608;2023-04-03T13:56:43;17.90;69.20
22416;DHT22;12204;50.600;4.608;2023-04-03T14:01:50;17.90;69.00
22416;DHT22;12204;50.600;4.608;2023-04-03T14:06:56;18.00;69.20
22416;DHT22;12204;50.600;4.608;2023-04-03T14:12:05;18.00;69.20
22416;DHT22;12204;50.600;4.608;2023-04-03T14:17:26;18.10;69.10
22416;DHT22;12204;50.600;4.608;2023-04-03T14:22:32;18.10;68.70
22416;DHT22;12204;50.600;4.608;2023-04-03T14:27:40;18.10;68.70
22416;DHT22;12204;50.600;4.608;2023-04-03T14:32:46;18.20;68.70
22416;DHT22;12204;50.600;4.608;2023-04-03T14:37:51;18.20;68.80
22416;DHT22;12204;50.600;4.608;2023-04-03T14:42:57;18.20;69.10
22416;DHT22;12204;50.600;4.608;2023-04-03T14:48:01;18.30;68.60
22416;DHT22;12204;50.600;4.608;2023-04-03T14:53:07;18.30;68.50
22416;DHT22;12204;50.600;4.608;2023-04-03T14:58:14;18.30;68.60
22416;DHT22;12204;50.600;4.608;2023-04-03T15:03:20;18.40;69.10
22416;DHT22;12204;50.600;4.608;2023-04-03T15:08:26;18.40;68.90
22416;DHT22;12204;50.600;4.608;2023-04-03T15:13:33;18.40;69.00
22416;DHT22;12204;50.600;4.608;2023-04-03T15:18:38;18.40;69.10
22416;DHT22;12204;50.600;4.608;2023-04-03T15:23:41;18.40;69.10
22416;DHT22;12204;50.600;4.608;2023-04-03T15:28:46;18.50;69.20
22416;DHT22;12204;50.600;4.608;2023-04-03T15:33:50;18.50;69.00
22416;DHT22;12204;50.600;4.608;2023-04-03T15:38:53;18.50;69.10
22416;DHT22;12204;50.600;4.608;2023-04-03T15:43:58;18.60;69.20
22416;DHT22;12204;50.600;4.608;2023-04-03T15:49:02;18.60;69.10
22416;DHT22;12204;50.600;4.608;2023-04-03T15:54:05;18.70;69.00
22416;DHT22;12204;50.600;4.608;2023-04-03T15:59:10;18.70;68.90
22416;DHT22;12204;50.600;4.608;2023-04-03T16:04:14;18.70;68.90
22416;DHT22;12204;50.600;4.608;2023-04-03T16:09:20;18.80;68.90
22416;DHT22;12204;50.600;4.608;2023-04-03T16:14:25;18.80;68.70
22416;DHT22;12204;50.600;4.608;2023-04-03T16:19:30;18.80;68.80
22416;DHT22;12204;50.600;4.608;2023-04-03T16:24:33;18.80;68.90
22416;DHT22;12204;50.600;4.608;2023-04-03T16:29:39;18.90;68.90
22416;DHT22;12204;50.600;4.608;2023-04-03T16:34:42;18.80;68.80
22416;DHT22;12204;50.600;4.608;2023-04-03T16:39:46;18.90;68.90
22416;DHT22;12204;50.600;4.608;2023-04-03T16:44:51;18.90;69.00
22416;DHT22;12204;50.600;4.608;2023-04-03T16:49:54;18.90;69.00
22416;DHT22;12204;50.600;4.608;2023-04-03T16:54:58;18.90;69.00
22416;DHT22;12204;50.600;4.608;2023-04-03T17:00:04;18.90;68.90
22416;DHT22;12204;50.600;4.608;2023-04-03T17:05:10;19.00;69.10
22416;DHT22;12204;50.600;4.608;2023-04-03T17:10:14;19.00;69.10
22416;DHT22;12204;50.600;4.608;2023-04-03T17:15:19;19.00;69.00
22416;DHT22;12204;50.600;4.608;2023-04-03T17:20:23;19.00;68.70
22416;DHT22;12204;50.600;4.608;2023-04-03T17:25:27;19.00;68.80
22416;DHT22;12204;50.600;4.608;2023-04-03T17:30:32;19.00;68.90
22416;DHT22;12204;50.600;4.608;2023-04-03T17:35:35;19.00;68.90
22416;DHT22;12204;50.600;4.608;2023-04-03T17:40:39;19.00;69.00
22416;DHT22;12204;50.600;4.608;2023-04-03T17:45:46;19.00;68.90
22416;DHT22;12204;50.600;4.608;2023-04-03T17:50:49;19.00;68.90
22416;DHT22;12204;50.600;4.608;2023-04-03T17:55:53;18.90;68.80
22416;DHT22;12204;50.600;4.608;2023-04-03T18:00:58;18.90;68.80
22416;DHT22;12204;50.600;4.608;2023-04-03T18:06:02;18.80;69.20
22416;DHT22;12204;50.600;4.608;2023-04-03T18:11:07;18.80;69.40
22416;DHT22;12204;50.600;4.608;2023-04-03T18:16:13;18.70;69.40
22416;DHT22;12204;50.600;4.608;2023-04-03T18:21:17;18.70;69.70
22416;DHT22;12204;50.600;4.608;2023-04-03T18:26:21;18.60;69.90
22416;DHT22;12204;50.600;4.608;2023-04-03T18:31:32;18.60;70.50
22416;DHT22;12204;50.600;4.608;2023-04-03T18:36:36;18.60;70.30
22416;DHT22;12204;50.600;4.608;2023-04-03T18:41:40;18.60;69.90
22416;DHT22;12204;50.600;4.608;2023-04-03T18:46:45;18.60;69.40
22416;DHT22;12204;50.600;4.608;2023-04-03T18:51:49;18.60;69.30
22416;DHT22;12204;50.600;4.608;2023-04-03T18:56:53;18.60;69.20
22416;DHT22;12204;50.600;4.608;2023-04-03T19:01:58;18.60;69.30
22416;DHT22;12204;50.600;4.608;2023-04-03T19:07:02;18.60;69.20
22416;DHT22;12204;50.600;4.608;2023-04-03T19:12:07;18.50;69.20
22416;DHT22;12204;50.600;4.608;2023-04-03T19:17:12;18.50;69.20
22416;DHT22;12204;50.600;4.608;2023-04-03T19:22:15;18.50;69.20
22416;DHT22;12204;50.600;4.608;2023-04-03T19:27:19;18.50;69.20
22416;DHT22;12204;50.600;4.608;2023-04-03T19:32:23;18.50;69.20
22416;DHT22;12204;50.600;4.608;2023-04-03T19:37:28;18.50;69.20
22416;DHT22;12204;50.600;4.608;2023-04-03T19:42:32;18.50;69.30
22416;DHT22;12204;50.600;4.608;2023-04-03T19:47:38;18.40;69.20
22416;DHT22;12204;50.600;4.608;2023-04-03T19:52:43;18.40;69.20
22416;DHT22;12204;50.600;4.608;2023-04-03T19:57:46;18.40;69.40
22416;DHT22;12204;50.600;4.608;2023-04-03T20:02:51;18.40;69.30
22416;DHT22;12204;50.600;4.608;2023-04-03T20:07:54;18.40;69.40
22416;DHT22;12204;50.600;4.608;2023-04-03T20:12:58;18.40;69.50
22416;DHT22;12204;50.600;4.608;2023-04-03T20:18:03;18.40;69.50
22416;DHT22;12204;50.600;4.608;2023-04-03T20:23:07;18.40;69.50
22416;DHT22;12204;50.600;4.608;2023-04-03T20:28:12;18.40;70.30
22416;DHT22;12204;50.600;4.608;2023-04-03T20:33:19;18.30;69.40
22416;DHT22;12204;50.600;4.608;2023-04-03T20:38:24;18.30;69.50
22416;DHT22;12204;50.600;4.608;2023-04-03T20:43:27;18.30;69.60
22416;DHT22;12204;50.600;4.608;2023-04-03T20:48:32;18.30;69.60
22416;DHT22;12204;50.600;4.608;2023-04-03T20:53:36;18.30;69.50
22416;DHT22;12204;50.600;4.608;2023-04-03T20:58:40;18.30;69.60
22416;DHT22;12204;50.600;4.608;2023-04-03T21:03:50;18.30;69.60
22416;DHT22;12204;50.600;4.608;2023-04-03T21:20:52;18.30;69.80
22416;DHT22;12204;50.600;4.608;2023-04-03T21:25:56;18.30;69.80
22416;DHT22;12204;50.600;4.608;2023-04-03T21:31:01;18.30;69.80
22416;DHT22;12204;50.600;4.608;2023-04-03T21:36:06;18.30;69.80
22416;DHT22;12204;50.600;4.608;2023-04-03T21:41:11;18.20;69.80
22416;DHT22;12204;50.600;4.608;2023-04-03T21:46:14;18.30;70.00
22416;DHT22;12204;50.600;4.608;2023-04-03T21:51:19;18.30;69.90
22416;DHT22;12204;50.600;4.608;2023-04-03T21:56:23;18.30;70.00
22416;DHT22;12204;50.600;4.608;2023-04-03T22:01:28;18.20;69.90
22416;DHT22;12204;50.600;4.608;2023-04-03T22:06:34;18.20;70.00
22416;DHT22;12204;50.600;4.608;2023-04-03T22:11:39;18.20;70.00
22416;DHT22;12204;50.600;4.608;2023-04-03T22:16:46;18.20;69.80
22416;DHT22;12204;50.600;4.608;2023-04-03T22:21:51;18.20;70.00
22416;DHT22;12204;50.600;4.608;2023-04-03T22:26:55;18.20;70.00
22416;DHT22;12204;50.600;4.608;2023-04-03T22:31:59;18.20;70.00
22416;DHT22;12204;50.600;4.608;2023-04-03T22:37:04;18.20;69.90
22416;DHT22;12204;50.600;4.608;2023-04-03T22:42:07;18.20;70.00
22416;DHT22;12204;50.600;4.608;2023-04-03T22:47:11;18.20;70.10
22416;DHT22;12204;50.600;4.608;2023-04-03T22:52:17;18.20;70.10
22416;DHT22;12204;50.600;4.608;2023-04-03T22:57:21;18.20;70.10
22416;DHT22;12204;50.600;4.608;2023-04-03T23:02:25;18.20;70.00
22416;DHT22;12204;50.600;4.608;2023-04-03T23:07:30;18.20;70.10
22416;DHT22;12204;50.600;4.608;2023-04-03T23:12:36;18.20;70.20
22416;DHT22;12204;50.600;4.608;2023-04-03T23:17:39;18.20;70.20
22416;DHT22;12204;50.600;4.608;2023-04-03T23:22:45;18.20;70.20
22416;DHT22;12204;50.600;4.608;2023-04-03T23:27:49;18.20;70.10
22416;DHT22;12204;50.600;4.608;2023-04-03T23:32:53;18.20;70.20
22416;DHT22;12204;50.600;4.608;2023-04-03T23:37:58;18.10;70.20
22416;DHT22;12204;50.600;4.608;2023-04-03T23:43:01;18.20;70.30
22416;DHT22;12204;50.600;4.608;2023-04-03T23:48:05;18.20;70.30
22416;DHT22;12204;50.600;4.608;2023-04-03T23:53:11;18.10;70.20
22416;DHT22;12204;50.600;4.608;2023-04-03T23:58:14;18.20;70.30
